Share

بلغراد, جمهورية صربيا

12:20 AM CEST on ابریل 25, 2014 (GMT +0200)
ISRBIJAB2 Elev 355 ft | 44.81 °N, 20.53 °E | Change Station

Current weather conditions updated 4 minutes ago

Scattered Clouds
غيوم متفرقة
59.2 °F
Feels Like 59.2 °F
N
1.0
ريح متغير ريح from جنوب شرقی
Gusts 2.0 mph
شروق الشمس 5:37 AM
غروب الشمس 7:35 PM
قمر الهلال الأخير

Today is forecast to be Warmer than yesterday. زخات مطر صباحًا..

الضغط 29.86 في
وضوح الرؤية 6.2 أميال
سحابات غيوم متفرقة 4000 ft
نقطة الندى 56 °F
الرطوبة 90%
Rainfall 0.00 في
عمق الثلج Not available.
الأشعة فوق البنفسجية 0 out of 16
Pollen Not available.
جودة الهواء Not available.
Flu Activity Not available.
METAR LYBE 242200Z 15006KT 9999 SCT040 15/13 Q1011 NOSIG

More Conditions Fewer Conditions

الضغط 29.86 في
وضوح الرؤية 6.2 أميال
سحابات غيوم متفرقة 4000 ft
نقطة الندى 56 °F
الرطوبة 90%
Rainfall 0.00 في
عمق الثلج Not available.
الأشعة فوق البنفسجية 0 out of 16
Pollen Not available.
جودة الهواء Not available.
Flu Activity Not available.
METAR LYBE 242200Z 15006KT 9999 SCT040 15/13 Q1011 NOSIG

More Conditions Fewer Conditions

10-Day Weather Forecast

Almanac

علم الفلك

Apr. 25, 2014 Rise Set
Actual Time 5:37 AM CEST 7:35 PM CEST
Civil Twilight 5:06 AM CEST 8:07 PM CEST
Nautical Twilight 4:27 AM CEST 8:45 PM CEST
Astronomical Twilight 3:45 AM CEST 9:28 PM CEST
قمر 3:25 AM CEST (4/25) 3:27 PM CEST (4/25)
Length Of Visible Light 15h 01m
طول الیوم
13h 57m
Tomorrow will be 2m 50s longer.
الهلال الأخير, 22% of the Moon is Illuminated
Apr 24
الهلال الأخير
Apr 29
New
May 6
الربع الاول
May 14
بدر
May 21
الربع الآخر

Community

  • Jone Runs Falls
    Jone Runs Falls
  • Easter in Shenandoah National Park
    Easter in Shenandoah National Park
  • Sunset at Apalachicola Bay, Florida
    Sunset at Apalachicola Bay, Florida
  • Clouds mov'n in
    Clouds mov'n in
  • Stacked
    Stacked

WunderPhotos

Upload Photos

1,704,732 photos uploaded!

Nearby

جودة الهواء

Not available.

عمق الثلج

Not available.

Coastal Water Temperatures

مكان درجات الحرارة
No Stations Reporting

Earthquake Activity

City Distance Mag. Time & Date
No recent earthquake activity has been reported nearby.
Minimum magnitude displayed is 2.5.

Nearby Weather Stations

Station Location الحرارة نقطة الندى الرطوبة ريح Precip. Elev تحديث Type
Beograd-Karaburma 59.2 °F 56 °F 90% جنوب شرقی  عند  1.0 mph 0.00 في / hr 355 ft 12:15 AM CEST Normal
Misa, Pancevo 59.4 °F 59 °F 98% جنوب شرقی  عند  1.6 mph 0.00 في / hr 253 ft 12:20 AM CEST Rapid Fire
Zaklopaca, Grocka 58.5 °F 56 °F 92% SSE  عند  0.0 mph 0.00 في / hr 577 ft 12:00 AM CEST Normal
Duboko vinogradi, Bari%u010D 58.3 °F 55 °F 88% SSE  عند  0.0 mph 0.00 في / hr 522 ft 12:20 AM CEST Normal
Babe, vikend naselje, Sopot 56.8 °F 55 °F 94% شمال  عند  - - / hr 1079 ft 12:18 AM CEST Normal

Show More Stations Show Fewer Stations

What do you think?

We're not finished. Please let us know what you like, what you don't like, and what you are still missing.